createdAt,value
2023-03-29T08:22:46.831Z,6.50
2023-03-29T08:25:18.787Z,6.40
2023-03-29T08:27:50.693Z,6.80
2023-03-29T08:30:29.467Z,6.60
2023-03-29T08:32:58.522Z,4.20
2023-03-29T08:35:28.090Z,5.70
2023-03-29T08:38:22.641Z,4.80
2023-03-29T08:40:52.494Z,4.80
2023-03-29T08:43:58.234Z,6.60
2023-03-29T08:47:23.604Z,5.40
2023-03-29T08:49:56.708Z,6.30
2023-03-29T08:52:46.722Z,5.60
2023-03-29T08:56:03.898Z,5.00
2023-03-29T08:58:52.619Z,3.90
2023-03-29T09:01:23.780Z,4.10
2023-03-29T09:04:40.721Z,4.30
2023-03-29T09:07:26.411Z,5.20
2023-03-29T09:09:59.929Z,4.60
2023-03-29T09:13:09.955Z,4.20
2023-03-29T09:15:52.873Z,4.90
2023-03-29T09:18:58.662Z,4.00
2023-03-29T09:22:22.788Z,3.80
2023-03-29T09:25:05.678Z,7.00
2023-03-29T09:27:51.202Z,3.50
2023-03-29T09:31:14.561Z,4.40
2023-03-29T09:34:23.905Z,4.20
2023-03-29T09:37:23.188Z,3.00
2023-03-29T09:39:53.576Z,4.00
2023-03-29T09:42:28.429Z,2.90
2023-03-29T09:45:08.852Z,3.40
2023-03-29T09:47:56.563Z,5.20
2023-03-29T09:50:51.834Z,4.00
2023-03-29T09:53:22.299Z,10.50
2023-03-29T09:56:01.643Z,4.80
2023-03-29T09:58:47.044Z,3.90
2023-03-29T10:01:19.041Z,4.90
2023-03-29T10:03:53.568Z,5.50
2023-03-29T10:06:26.999Z,3.90
2023-03-29T10:08:59.782Z,3.10
2023-03-29T10:11:39.280Z,8.30
2023-03-29T10:14:17.981Z,3.80
2023-03-29T10:16:46.824Z,4.80
2023-03-29T10:19:36.246Z,3.90
2023-03-29T10:22:14.985Z,4.00
2023-03-29T10:24:51.672Z,3.40
2023-03-29T10:27:36.588Z,2.50
2023-03-29T10:30:21.645Z,2.70
2023-03-29T10:33:00.043Z,3.40
2023-03-29T10:35:41.901Z,2.40
2023-03-29T10:38:15.272Z,3.00
2023-03-29T10:40:54.646Z,3.60
2023-03-29T10:43:32.966Z,2.90
2023-03-29T10:46:31.792Z,3.40
2023-03-29T10:49:10.625Z,5.00
2023-03-29T10:51:46.641Z,5.50
2023-03-29T10:54:24.761Z,4.10
2023-03-29T10:56:59.232Z,3.00
2023-03-29T10:59:54.745Z,3.70
2023-03-29T11:02:50.756Z,5.10
2023-03-29T11:05:42.055Z,3.50
2023-03-29T11:08:41.188Z,3.80
2023-03-29T11:11:41.345Z,5.40
2023-03-29T11:14:36.814Z,4.60
2023-03-29T11:17:16.738Z,6.00
2023-03-29T11:20:05.200Z,4.30
2023-03-29T11:23:23.755Z,4.50
2023-03-29T11:25:55.553Z,3.70
2023-03-29T11:28:53.275Z,3.80
2023-03-29T11:31:39.079Z,4.00
2023-03-29T11:34:26.631Z,5.20
2023-03-29T11:37:10.129Z,4.40
2023-03-29T11:40:07.966Z,5.50
2023-03-29T11:42:43.577Z,4.90
2023-03-29T11:45:21.470Z,3.90
2023-03-29T11:47:53.277Z,3.70
2023-03-29T11:50:56.589Z,4.20
2023-03-29T11:53:41.489Z,4.40
2023-03-29T11:56:19.634Z,5.20
2023-03-29T11:58:58.448Z,8.80
2023-03-29T12:01:46.548Z,7.60
2023-03-29T12:04:26.176Z,6.70
2023-03-29T12:09:50.329Z,10.50
2023-03-29T12:12:29.166Z,4.70
2023-03-29T12:15:04.476Z,6.50
2023-03-29T12:17:57.428Z,8.20
2023-03-29T12:20:32.145Z,7.50
2023-03-29T12:23:03.123Z,7.10
2023-03-29T12:25:49.887Z,5.10
2023-03-29T12:29:10.192Z,5.00
2023-03-29T12:32:06.551Z,5.10
2023-03-29T12:35:25.069Z,3.50
2023-03-29T12:38:30.841Z,4.60
2023-03-29T12:41:19.329Z,6.90
2023-03-29T12:44:08.949Z,4.40
2023-03-29T12:47:05.436Z,4.40
2023-03-29T12:49:39.527Z,5.60
2023-03-29T12:52:31.820Z,4.10
2023-03-29T12:55:31.038Z,4.20
2023-03-29T12:58:11.562Z,5.50
2023-03-29T13:00:40.495Z,5.20
2023-03-29T13:03:43.781Z,4.10
2023-03-29T13:06:13.695Z,3.70
2023-03-29T13:08:45.422Z,3.00
2023-03-29T13:11:42.931Z,2.70
2023-03-29T13:14:20.609Z,3.70
2023-03-29T13:16:50.191Z,3.70
2023-03-29T13:19:53.708Z,3.90
2023-03-29T13:22:48.231Z,4.80
2023-03-29T13:25:39.189Z,4.20
2023-03-29T13:28:35.792Z,3.40
2023-03-29T13:31:25.494Z,5.80
2023-03-29T13:36:52.418Z,4.90
2023-03-29T13:39:30.561Z,4.30
2023-03-29T13:42:20.178Z,5.80
2023-03-29T13:47:26.653Z,4.20
2023-03-29T13:50:00.156Z,3.60
2023-03-29T13:52:36.259Z,7.30
2023-03-29T13:55:12.254Z,3.40
2023-03-29T13:58:04.003Z,5.20
2023-03-29T14:00:46.509Z,4.30
2023-03-29T14:03:18.728Z,5.00
2023-03-29T14:06:02.419Z,3.70
2023-03-29T14:08:36.819Z,3.10
2023-03-29T14:11:08.451Z,3.20
2023-03-29T14:13:37.352Z,4.10
2023-03-29T14:16:12.055Z,3.60
2023-03-29T14:18:51.434Z,5.20
2023-03-29T14:21:22.097Z,4.30
2023-03-29T14:23:59.945Z,4.40
2023-03-29T14:26:36.168Z,3.10
2023-03-29T14:29:04.826Z,3.80
2023-03-29T14:31:37.065Z,2.80
2023-03-29T14:34:17.537Z,3.30
2023-03-29T14:36:49.427Z,3.30
2023-03-29T14:39:22.018Z,3.90
2023-03-29T14:41:57.196Z,3.70
2023-03-29T14:44:33.319Z,4.00
2023-03-29T14:47:03.624Z,4.40
2023-03-29T14:49:32.688Z,5.10
2023-03-29T14:52:01.680Z,2.90
2023-03-29T14:54:33.638Z,2.80
2023-03-29T14:57:06.756Z,3.50
2023-03-29T14:59:35.426Z,3.20
2023-03-29T15:02:04.997Z,3.90
2023-03-29T15:04:36.442Z,4.30
2023-03-29T15:07:05.222Z,3.50
2023-03-29T15:09:35.538Z,3.10
2023-03-29T15:12:04.285Z,4.10
2023-03-29T15:14:34.060Z,3.40
2023-03-29T15:17:39.456Z,3.40
2023-03-29T15:20:30.435Z,5.10
2023-03-29T15:23:28.553Z,3.60
2023-03-29T15:26:07.161Z,3.30
2023-03-29T15:28:45.207Z,3.60
2023-03-29T15:31:20.170Z,5.00
2023-03-29T15:33:48.877Z,3.80
2023-03-29T15:36:17.735Z,3.90
2023-03-29T15:38:49.823Z,4.10
2023-03-29T15:41:18.664Z,4.10
2023-03-29T15:43:47.350Z,4.50
2023-03-29T15:46:16.833Z,3.30
2023-03-29T15:48:46.131Z,3.90
2023-03-29T15:51:14.746Z,4.60
2023-03-29T15:53:43.338Z,3.60
2023-03-29T15:56:18.392Z,4.10
2023-03-29T15:58:47.784Z,5.20
2023-03-29T16:01:37.800Z,4.80
2023-03-29T16:04:22.798Z,4.50
2023-03-29T16:06:54.678Z,6.90
2023-03-29T16:09:23.735Z,5.30
2023-03-29T16:11:52.327Z,6.60
2023-03-29T16:14:27.521Z,6.90
2023-03-29T16:16:58.555Z,4.80
2023-03-29T16:19:28.765Z,4.80
2023-03-29T16:21:58.719Z,5.10
2023-03-29T16:24:32.714Z,5.30
2023-03-29T16:27:01.998Z,5.70
2023-03-29T16:29:30.983Z,6.30
2023-03-29T16:31:59.704Z,5.80
2023-03-29T16:34:30.274Z,5.30
2023-03-29T16:36:59.349Z,4.70
2023-03-29T16:39:28.370Z,7.10
2023-03-29T16:41:57.125Z,6.10
2023-03-29T16:44:28.079Z,6.30
2023-03-29T16:46:58.620Z,7.90
2023-03-29T16:49:27.309Z,8.00
2023-03-29T16:51:56.386Z,9.40
2023-03-29T16:54:26.286Z,8.20
2023-03-29T16:56:55.677Z,9.60
2023-03-29T16:59:34.140Z,7.90
2023-03-29T17:02:03.189Z,9.00
2023-03-29T17:04:32.215Z,9.00
2023-03-29T17:07:01.267Z,9.00
2023-03-29T17:09:30.065Z,8.00
2023-03-29T17:11:58.924Z,8.20
2023-03-29T17:14:27.631Z,8.00
2023-03-29T17:16:56.524Z,7.40
2023-03-29T17:19:25.724Z,6.00
2023-03-29T17:21:54.519Z,7.40
2023-03-29T17:24:23.073Z,6.40
2023-03-29T17:26:51.738Z,6.60
2023-03-29T17:29:20.842Z,5.80
2023-03-29T17:31:49.797Z,6.70
2023-03-29T17:34:19.398Z,5.90
2023-03-29T17:36:49.071Z,6.70
2023-03-29T17:41:47.981Z,6.50
2023-03-29T17:44:16.721Z,7.70
2023-03-29T17:46:45.911Z,8.40
2023-03-29T17:49:15.216Z,11.50
2023-03-29T17:51:43.825Z,8.80
2023-03-29T17:54:12.896Z,10.60
2023-03-29T17:56:41.574Z,9.70
2023-03-29T17:59:10.236Z,12.70
2023-03-29T18:01:39.546Z,10.50
2023-03-29T18:04:09.501Z,9.70
2023-03-29T18:06:38.251Z,11.40
2023-03-29T18:09:07.260Z,10.40
2023-03-29T18:11:36.946Z,12.10
2023-03-29T18:16:34.440Z,13.00
2023-03-29T18:19:03.403Z,9.20
2023-03-29T18:21:32.249Z,10.40
2023-03-29T18:24:00.902Z,11.40
2023-03-29T18:26:30.079Z,10.50
2023-03-29T18:28:58.749Z,10.40
2023-03-29T18:31:28.341Z,11.20
2023-03-29T18:33:57.132Z,9.70
2023-03-29T18:36:26.419Z,11.30
2023-03-29T18:38:56.003Z,11.00
2023-03-29T18:41:24.894Z,11.20
2023-03-29T18:43:57.400Z,13.00
2023-03-29T18:46:30.860Z,10.70
2023-03-29T18:49:01.429Z,11.70
2023-03-29T18:51:31.366Z,9.10
2023-03-29T18:54:00.982Z,10.30
2023-03-29T18:56:29.818Z,10.50
2023-03-29T18:58:58.648Z,12.20
2023-03-29T19:01:27.411Z,10.10
2023-03-29T19:03:56.228Z,9.80
2023-03-29T19:06:25.167Z,9.60
2023-03-29T19:08:55.468Z,7.70
2023-03-29T19:11:26.483Z,7.40
2023-03-29T19:13:56.748Z,7.70
2023-03-29T19:16:27.642Z,7.20
2023-03-29T19:18:56.703Z,7.80
2023-03-29T19:21:25.374Z,7.90
2023-03-29T19:23:53.957Z,7.40
2023-03-29T19:26:23.781Z,10.90
2023-03-29T19:28:52.414Z,9.00
2023-03-29T19:31:21.627Z,9.40
2023-03-29T19:33:50.296Z,10.50
2023-03-29T19:36:18.857Z,9.20
2023-03-29T19:38:47.554Z,10.40
2023-03-29T19:41:16.665Z,9.80
2023-03-29T19:43:45.359Z,10.30
2023-03-29T19:46:15.874Z,11.90
2023-03-29T19:48:44.565Z,10.90
2023-03-29T19:51:13.477Z,10.50
2023-03-29T19:53:42.154Z,10.90
2023-03-29T19:56:11.148Z,9.40
2023-03-29T19:58:39.978Z,9.70
2023-03-29T20:01:08.672Z,9.80
2023-03-29T20:03:37.257Z,9.70
2023-03-29T20:06:06.668Z,8.80
2023-03-29T20:08:38.978Z,12.40
2023-03-29T20:11:10.451Z,10.50
2023-03-29T20:13:42.822Z,11.00
2023-03-29T20:16:16.128Z,10.20
2023-03-29T20:18:45.724Z,8.90
2023-03-29T20:21:16.846Z,13.60
2023-03-29T20:23:45.909Z,10.90
2023-03-29T20:26:14.556Z,10.80
2023-03-29T20:28:43.262Z,10.20
2023-03-29T20:31:12.093Z,10.70
2023-03-29T20:33:41.642Z,11.00
2023-03-29T20:36:12.095Z,10.40
2023-03-29T20:38:40.782Z,10.60
2023-03-29T20:41:09.537Z,9.90
2023-03-29T20:43:38.545Z,10.60
2023-03-29T20:46:18.539Z,11.90
2023-03-29T20:48:53.508Z,9.90
2023-03-29T20:51:30.567Z,9.00
2023-03-29T20:54:05.041Z,11.00
2023-03-29T20:56:40.369Z,11.50
2023-03-29T20:59:12.461Z,11.20
2023-03-29T21:01:41.259Z,8.70
2023-03-29T21:04:11.148Z,11.00
2023-03-29T21:06:41.815Z,10.70
2023-03-29T21:09:10.371Z,10.80
2023-03-29T21:11:39.383Z,10.40
2023-03-29T21:14:09.552Z,8.60
2023-03-29T21:16:41.898Z,10.00
2023-03-29T21:19:10.692Z,8.40
2023-03-29T21:21:41.643Z,10.50
2023-03-29T21:24:11.401Z,8.20
2023-03-29T21:26:41.775Z,9.70
2023-03-29T21:29:10.887Z,8.50
2023-03-29T21:31:39.885Z,7.50
2023-03-29T21:34:08.701Z,7.50
2023-03-29T21:36:37.342Z,9.60
2023-03-29T21:39:05.993Z,7.90
2023-03-29T21:41:34.580Z,7.40
2023-03-29T21:44:03.340Z,9.70
2023-03-29T21:46:31.987Z,8.30
2023-03-29T21:49:00.817Z,8.80
2023-03-29T21:51:29.672Z,7.30
2023-03-29T21:53:58.401Z,7.30
2023-03-29T21:56:28.358Z,8.60
2023-03-29T21:58:56.936Z,7.70
2023-03-29T22:01:25.558Z,7.90
2023-03-29T22:03:54.432Z,8.60
2023-03-29T22:06:23.050Z,8.00
2023-03-29T22:08:53.311Z,6.60
2023-03-29T22:11:23.488Z,6.30
2023-03-29T22:13:52.624Z,8.00
2023-03-29T22:16:22.365Z,8.60
2023-03-29T22:18:52.802Z,7.20
2023-03-29T22:21:30.732Z,8.80
2023-03-29T22:24:01.507Z,9.30
2023-03-29T22:26:32.626Z,7.00
2023-03-29T22:29:02.000Z,6.60
2023-03-29T22:31:31.857Z,7.40
2023-03-29T22:34:02.934Z,8.00
2023-03-29T22:36:32.074Z,6.20
2023-03-29T22:39:00.801Z,7.10
2023-03-29T22:41:29.495Z,6.60
2023-03-29T22:44:01.144Z,8.10
2023-03-29T22:46:30.136Z,7.60
2023-03-29T22:48:58.894Z,6.60
2023-03-29T22:51:27.566Z,6.60
2023-03-29T22:53:56.441Z,6.00
2023-03-29T22:56:25.377Z,6.70
2023-03-29T22:58:53.923Z,7.30
2023-03-29T23:01:22.700Z,8.30
2023-03-29T23:03:51.973Z,7.70
2023-03-29T23:06:20.676Z,5.80
2023-03-29T23:08:49.312Z,7.60
2023-03-29T23:11:17.918Z,7.60
2023-03-29T23:13:49.069Z,6.00
2023-03-29T23:16:20.885Z,6.90
2023-03-29T23:18:49.657Z,7.80
2023-03-29T23:21:18.396Z,5.40
2023-03-29T23:23:47.095Z,6.70
2023-03-29T23:26:16.236Z,8.00
2023-03-29T23:28:44.953Z,5.90
2023-03-29T23:31:18.716Z,7.50
2023-03-29T23:33:47.444Z,7.10
2023-03-29T23:36:19.078Z,6.70
2023-03-29T23:38:49.004Z,6.10
2023-03-29T23:41:18.007Z,4.20
2023-03-29T23:43:50.358Z,6.00
2023-03-29T23:46:19.169Z,7.10
2023-03-29T23:48:50.369Z,7.10
2023-03-29T23:51:23.350Z,6.60
2023-03-29T23:53:52.417Z,5.90
2023-03-29T23:56:21.810Z,5.80
2023-03-29T23:58:51.122Z,5.60
